sensor_id;sensor_type;location;lat;lon;timestamp;P1;durP1;ratioP1;P2;durP2;ratioP2
12861;SDS011;6499;66.348;14.134;2023-06-04T00:01:49;0.20;;;0.20;;
12861;SDS011;6499;66.348;14.134;2023-06-04T00:04:16;0.83;;;0.47;;
12861;SDS011;6499;66.348;14.134;2023-06-04T00:06:42;0.83;;;0.60;;
12861;SDS011;6499;66.348;14.134;2023-06-04T00:09:11;0.43;;;0.30;;
12861;SDS011;6499;66.348;14.134;2023-06-04T00:11:37;1.10;;;0.30;;
12861;SDS011;6499;66.348;14.134;2023-06-04T00:14:04;0.67;;;0.40;;
12861;SDS011;6499;66.348;14.134;2023-06-04T00:16:30;0.40;;;0.40;;
12861;SDS011;6499;66.348;14.134;2023-06-04T00:18:57;0.40;;;0.30;;
12861;SDS011;6499;66.348;14.134;2023-06-04T00:21:23;2.50;;;0.50;;
12861;SDS011;6499;66.348;14.134;2023-06-04T00:23:50;1.00;;;0.50;;
12861;SDS011;6499;66.348;14.134;2023-06-04T00:26:18;1.10;;;0.40;;
12861;SDS011;6499;66.348;14.134;2023-06-04T00:28:45;1.07;;;0.50;;
12861;SDS011;6499;66.348;14.134;2023-06-04T00:31:11;0.50;;;0.37;;
12861;SDS011;6499;66.348;14.134;2023-06-04T00:33:38;0.77;;;0.50;;
12861;SDS011;6499;66.348;14.134;2023-06-04T00:36:05;1.30;;;0.40;;
12861;SDS011;6499;66.348;14.134;2023-06-04T00:38:33;0.67;;;0.30;;
12861;SDS011;6499;66.348;14.134;2023-06-04T00:41:00;0.80;;;0.40;;
12861;SDS011;6499;66.348;14.134;2023-06-04T00:43:28;1.17;;;0.67;;
12861;SDS011;6499;66.348;14.134;2023-06-04T00:45:56;1.27;;;0.33;;
12861;SDS011;6499;66.348;14.134;2023-06-04T00:48:23;0.57;;;0.30;;
12861;SDS011;6499;66.348;14.134;2023-06-04T00:50:50;2.20;;;0.43;;
12861;SDS011;6499;66.348;14.134;2023-06-04T00:53:17;0.50;;;0.50;;
12861;SDS011;6499;66.348;14.134;2023-06-04T00:55:43;1.30;;;0.40;;
12861;SDS011;6499;66.348;14.134;2023-06-04T00:58:10;1.37;;;0.30;;
12861;SDS011;6499;66.348;14.134;2023-06-04T01:00:38;0.50;;;0.40;;
12861;SDS011;6499;66.348;14.134;2023-06-04T01:03:07;1.37;;;0.47;;
12861;SDS011;6499;66.348;14.134;2023-06-04T01:05:35;1.03;;;0.40;;
12861;SDS011;6499;66.348;14.134;2023-06-04T01:08:03;0.90;;;0.50;;
12861;SDS011;6499;66.348;14.134;2023-06-04T01:10:30;0.37;;;0.30;;
12861;SDS011;6499;66.348;14.134;2023-06-04T01:12:57;0.63;;;0.37;;
12861;SDS011;6499;66.348;14.134;2023-06-04T01:15:23;1.03;;;0.50;;
12861;SDS011;6499;66.348;14.134;2023-06-04T01:17:53;0.93;;;0.33;;
12861;SDS011;6499;66.348;14.134;2023-06-04T01:20:24;2.53;;;0.50;;
12861;SDS011;6499;66.348;14.134;2023-06-04T01:23:03;1.23;;;0.37;;
12861;SDS011;6499;66.348;14.134;2023-06-04T01:25:32;0.30;;;0.30;;
12861;SDS011;6499;66.348;14.134;2023-06-04T01:27:59;0.67;;;0.27;;
12861;SDS011;6499;66.348;14.134;2023-06-04T01:30:29;0.40;;;0.30;;
12861;SDS011;6499;66.348;14.134;2023-06-04T01:32:58;0.67;;;0.57;;
12861;SDS011;6499;66.348;14.134;2023-06-04T01:35:25;0.67;;;0.40;;
12861;SDS011;6499;66.348;14.134;2023-06-04T01:37:51;0.60;;;0.40;;
12861;SDS011;6499;66.348;14.134;2023-06-04T01:40:19;1.17;;;0.30;;
12861;SDS011;6499;66.348;14.134;2023-06-04T01:42:46;1.43;;;0.40;;
12861;SDS011;6499;66.348;14.134;2023-06-04T01:45:12;0.40;;;0.40;;
12861;SDS011;6499;66.348;14.134;2023-06-04T01:47:39;0.93;;;0.23;;
12861;SDS011;6499;66.348;14.134;2023-06-04T01:50:07;0.93;;;0.40;;
12861;SDS011;6499;66.348;14.134;2023-06-04T01:52:34;1.67;;;0.47;;
12861;SDS011;6499;66.348;14.134;2023-06-04T01:55:01;0.30;;;0.30;;
12861;SDS011;6499;66.348;14.134;2023-06-04T01:57:28;1.50;;;0.40;;
12861;SDS011;6499;66.348;14.134;2023-06-04T01:59:54;0.50;;;0.30;;
12861;SDS011;6499;66.348;14.134;2023-06-04T02:02:21;0.30;;;0.30;;
12861;SDS011;6499;66.348;14.134;2023-06-04T02:04:47;0.30;;;0.30;;
12861;SDS011;6499;66.348;14.134;2023-06-04T02:07:18;0.93;;;0.40;;
12861;SDS011;6499;66.348;14.134;2023-06-04T02:09:45;0.30;;;0.30;;
12861;SDS011;6499;66.348;14.134;2023-06-04T02:12:12;1.70;;;0.40;;
12861;SDS011;6499;66.348;14.134;2023-06-04T02:14:39;2.63;;;0.50;;
12861;SDS011;6499;66.348;14.134;2023-06-04T02:17:07;0.60;;;0.23;;
12861;SDS011;6499;66.348;14.134;2023-06-04T02:19:38;1.90;;;0.70;;
12861;SDS011;6499;66.348;14.134;2023-06-04T02:22:05;0.87;;;0.33;;
12861;SDS011;6499;66.348;14.134;2023-06-04T02:24:33;0.73;;;0.37;;
12861;SDS011;6499;66.348;14.134;2023-06-04T02:26:59;2.00;;;0.40;;
12861;SDS011;6499;66.348;14.134;2023-06-04T02:29:26;0.50;;;0.33;;
12861;SDS011;6499;66.348;14.134;2023-06-04T02:31:53;1.13;;;0.40;;
12861;SDS011;6499;66.348;14.134;2023-06-04T02:34:19;0.70;;;0.30;;
12861;SDS011;6499;66.348;14.134;2023-06-04T02:36:46;0.87;;;0.40;;
12861;SDS011;6499;66.348;14.134;2023-06-04T02:39:13;0.87;;;0.40;;
12861;SDS011;6499;66.348;14.134;2023-06-04T02:41:41;0.87;;;0.47;;
12861;SDS011;6499;66.348;14.134;2023-06-04T02:44:07;2.17;;;0.47;;
12861;SDS011;6499;66.348;14.134;2023-06-04T02:46:34;1.27;;;0.37;;
12861;SDS011;6499;66.348;14.134;2023-06-04T02:49:00;0.60;;;0.40;;
12861;SDS011;6499;66.348;14.134;2023-06-04T02:51:27;0.63;;;0.40;;
12861;SDS011;6499;66.348;14.134;2023-06-04T02:53:53;1.30;;;0.57;;
12861;SDS011;6499;66.348;14.134;2023-06-04T02:56:20;1.43;;;0.33;;
12861;SDS011;6499;66.348;14.134;2023-06-04T02:58:51;1.37;;;0.50;;
12861;SDS011;6499;66.348;14.134;2023-06-04T03:01:18;1.03;;;0.30;;
12861;SDS011;6499;66.348;14.134;2023-06-04T03:03:46;1.20;;;0.30;;
12861;SDS011;6499;66.348;14.134;2023-06-04T03:06:12;0.40;;;0.20;;
12861;SDS011;6499;66.348;14.134;2023-06-04T03:08:40;0.30;;;0.20;;
12861;SDS011;6499;66.348;14.134;2023-06-04T03:11:06;1.73;;;0.50;;
12861;SDS011;6499;66.348;14.134;2023-06-04T03:13:33;0.83;;;0.40;;
12861;SDS011;6499;66.348;14.134;2023-06-04T03:16:01;0.37;;;0.30;;
12861;SDS011;6499;66.348;14.134;2023-06-04T03:18:28;0.40;;;0.40;;
12861;SDS011;6499;66.348;14.134;2023-06-04T03:20:54;0.83;;;0.20;;
12861;SDS011;6499;66.348;14.134;2023-06-04T03:23:21;0.20;;;0.20;;
12861;SDS011;6499;66.348;14.134;2023-06-04T03:25:48;0.27;;;0.27;;
12861;SDS011;6499;66.348;14.134;2023-06-04T03:28:14;1.03;;;0.40;;
12861;SDS011;6499;66.348;14.134;2023-06-04T03:30:41;0.30;;;0.30;;
12861;SDS011;6499;66.348;14.134;2023-06-04T03:33:09;0.27;;;0.20;;
12861;SDS011;6499;66.348;14.134;2023-06-04T03:35:35;0.30;;;0.30;;
12861;SDS011;6499;66.348;14.134;2023-06-04T03:38:02;0.60;;;0.30;;
12861;SDS011;6499;66.348;14.134;2023-06-04T03:40:29;0.63;;;0.20;;
12861;SDS011;6499;66.348;14.134;2023-06-04T03:42:55;1.37;;;0.30;;
12861;SDS011;6499;66.348;14.134;2023-06-04T03:45:21;1.30;;;0.20;;
12861;SDS011;6499;66.348;14.134;2023-06-04T03:47:48;0.33;;;0.30;;
12861;SDS011;6499;66.348;14.134;2023-06-04T03:50:17;0.23;;;0.20;;
12861;SDS011;6499;66.348;14.134;2023-06-04T03:52:43;0.30;;;0.30;;
12861;SDS011;6499;66.348;14.134;2023-06-04T03:55:10;0.83;;;0.23;;
12861;SDS011;6499;66.348;14.134;2023-06-04T03:57:37;0.57;;;0.33;;
12861;SDS011;6499;66.348;14.134;2023-06-04T04:00:05;1.27;;;0.40;;
12861;SDS011;6499;66.348;14.134;2023-06-04T04:02:32;0.50;;;0.30;;
12861;SDS011;6499;66.348;14.134;2023-06-04T04:04:58;0.30;;;0.30;;
12861;SDS011;6499;66.348;14.134;2023-06-04T04:07:26;1.00;;;0.50;;
12861;SDS011;6499;66.348;14.134;2023-06-04T04:09:52;0.77;;;0.30;;
12861;SDS011;6499;66.348;14.134;2023-06-04T04:12:19;0.40;;;0.20;;
12861;SDS011;6499;66.348;14.134;2023-06-04T04:14:46;0.53;;;0.40;;
12861;SDS011;6499;66.348;14.134;2023-06-04T04:17:13;0.40;;;0.40;;
12861;SDS011;6499;66.348;14.134;2023-06-04T04:19:39;0.53;;;0.30;;
12861;SDS011;6499;66.348;14.134;2023-06-04T04:22:06;2.17;;;0.37;;
12861;SDS011;6499;66.348;14.134;2023-06-04T04:24:35;1.73;;;0.60;;
12861;SDS011;6499;66.348;14.134;2023-06-04T04:27:03;2.10;;;0.50;;
12861;SDS011;6499;66.348;14.134;2023-06-04T04:29:29;1.80;;;0.53;;
12861;SDS011;6499;66.348;14.134;2023-06-04T04:31:57;2.70;;;0.60;;
12861;SDS011;6499;66.348;14.134;2023-06-04T04:34:25;1.53;;;0.40;;
12861;SDS011;6499;66.348;14.134;2023-06-04T04:36:52;0.40;;;0.40;;
12861;SDS011;6499;66.348;14.134;2023-06-04T04:39:19;1.80;;;0.40;;
12861;SDS011;6499;66.348;14.134;2023-06-04T04:41:47;0.40;;;0.40;;
12861;SDS011;6499;66.348;14.134;2023-06-04T04:44:14;0.93;;;0.40;;
12861;SDS011;6499;66.348;14.134;2023-06-04T04:46:40;2.23;;;0.77;;
12861;SDS011;6499;66.348;14.134;2023-06-04T04:49:07;1.47;;;0.50;;
12861;SDS011;6499;66.348;14.134;2023-06-04T04:51:33;1.57;;;0.63;;
12861;SDS011;6499;66.348;14.134;2023-06-04T04:54:00;1.13;;;0.70;;
12861;SDS011;6499;66.348;14.134;2023-06-04T04:56:26;1.00;;;0.43;;
12861;SDS011;6499;66.348;14.134;2023-06-04T04:58:55;1.27;;;0.73;;
12861;SDS011;6499;66.348;14.134;2023-06-04T05:01:21;1.50;;;0.40;;
12861;SDS011;6499;66.348;14.134;2023-06-04T05:03:49;0.97;;;0.40;;
12861;SDS011;6499;66.348;14.134;2023-06-04T05:06:15;1.27;;;0.97;;
12861;SDS011;6499;66.348;14.134;2023-06-04T05:08:42;2.00;;;0.50;;
12861;SDS011;6499;66.348;14.134;2023-06-04T05:11:08;2.67;;;0.60;;
12861;SDS011;6499;66.348;14.134;2023-06-04T05:13:35;1.67;;;0.60;;
12861;SDS011;6499;66.348;14.134;2023-06-04T05:16:03;3.17;;;0.60;;
12861;SDS011;6499;66.348;14.134;2023-06-04T05:18:31;0.73;;;0.40;;
12861;SDS011;6499;66.348;14.134;2023-06-04T05:20:58;1.40;;;0.43;;
12861;SDS011;6499;66.348;14.134;2023-06-04T05:23:27;1.90;;;0.57;;
12861;SDS011;6499;66.348;14.134;2023-06-04T05:25:54;2.50;;;0.70;;
12861;SDS011;6499;66.348;14.134;2023-06-04T05:28:21;1.33;;;0.57;;
12861;SDS011;6499;66.348;14.134;2023-06-04T05:30:50;2.17;;;0.50;;
12861;SDS011;6499;66.348;14.134;2023-06-04T05:33:18;3.03;;;0.50;;
12861;SDS011;6499;66.348;14.134;2023-06-04T05:35:45;2.83;;;0.43;;
12861;SDS011;6499;66.348;14.134;2023-06-04T05:38:13;1.23;;;0.47;;
12861;SDS011;6499;66.348;14.134;2023-06-04T05:40:42;2.40;;;0.60;;
12861;SDS011;6499;66.348;14.134;2023-06-04T05:43:08;1.63;;;0.73;;
12861;SDS011;6499;66.348;14.134;2023-06-04T05:45:35;1.27;;;0.50;;
12861;SDS011;6499;66.348;14.134;2023-06-04T05:48:02;1.70;;;0.50;;
12861;SDS011;6499;66.348;14.134;2023-06-04T05:50:30;1.23;;;0.40;;
12861;SDS011;6499;66.348;14.134;2023-06-04T05:52:57;2.63;;;0.67;;
12861;SDS011;6499;66.348;14.134;2023-06-04T05:55:23;0.63;;;0.50;;
12861;SDS011;6499;66.348;14.134;2023-06-04T05:57:50;4.10;;;0.60;;
12861;SDS011;6499;66.348;14.134;2023-06-04T06:00:17;1.73;;;0.60;;
12861;SDS011;6499;66.348;14.134;2023-06-04T06:02:44;0.80;;;0.70;;
12861;SDS011;6499;66.348;14.134;2023-06-04T06:05:14;2.00;;;0.60;;
12861;SDS011;6499;66.348;14.134;2023-06-04T06:07:42;1.50;;;0.50;;
12861;SDS011;6499;66.348;14.134;2023-06-04T06:10:09;2.43;;;0.80;;
12861;SDS011;6499;66.348;14.134;2023-06-04T06:12:35;1.27;;;0.50;;
12861;SDS011;6499;66.348;14.134;2023-06-04T06:15:02;1.07;;;0.50;;
12861;SDS011;6499;66.348;14.134;2023-06-04T06:17:29;2.17;;;0.80;;
12861;SDS011;6499;66.348;14.134;2023-06-04T06:19:55;1.60;;;0.50;;
12861;SDS011;6499;66.348;14.134;2023-06-04T06:22:22;1.33;;;0.80;;
12861;SDS011;6499;66.348;14.134;2023-06-04T06:24:50;2.63;;;0.60;;
12861;SDS011;6499;66.348;14.134;2023-06-04T06:27:16;3.80;;;0.63;;
12861;SDS011;6499;66.348;14.134;2023-06-04T06:29:43;2.47;;;0.80;;
12861;SDS011;6499;66.348;14.134;2023-06-04T06:32:10;1.70;;;0.70;;
12861;SDS011;6499;66.348;14.134;2023-06-04T06:34:36;4.77;;;1.13;;
12861;SDS011;6499;66.348;14.134;2023-06-04T06:37:06;2.50;;;0.63;;
12861;SDS011;6499;66.348;14.134;2023-06-04T06:39:32;2.80;;;0.83;;
12861;SDS011;6499;66.348;14.134;2023-06-04T06:42:00;1.07;;;0.50;;
12861;SDS011;6499;66.348;14.134;2023-06-04T06:44:27;5.47;;;0.77;;
12861;SDS011;6499;66.348;14.134;2023-06-04T06:46:53;2.77;;;0.70;;
12861;SDS011;6499;66.348;14.134;2023-06-04T06:49:20;2.73;;;0.80;;
12861;SDS011;6499;66.348;14.134;2023-06-04T06:51:46;1.93;;;0.80;;
12861;SDS011;6499;66.348;14.134;2023-06-04T06:54:16;2.13;;;0.90;;
12861;SDS011;6499;66.348;14.134;2023-06-04T06:56:46;1.87;;;0.70;;
12861;SDS011;6499;66.348;14.134;2023-06-04T06:59:15;1.23;;;0.60;;
12861;SDS011;6499;66.348;14.134;2023-06-04T07:01:41;2.50;;;0.67;;
12861;SDS011;6499;66.348;14.134;2023-06-04T07:04:08;3.53;;;1.20;;
12861;SDS011;6499;66.348;14.134;2023-06-04T07:06:34;3.23;;;0.90;;
12861;SDS011;6499;66.348;14.134;2023-06-04T07:09:02;2.47;;;0.93;;
12861;SDS011;6499;66.348;14.134;2023-06-04T07:11:29;2.80;;;0.80;;
12861;SDS011;6499;66.348;14.134;2023-06-04T07:13:55;1.87;;;0.83;;
12861;SDS011;6499;66.348;14.134;2023-06-04T07:16:23;2.03;;;0.70;;
12861;SDS011;6499;66.348;14.134;2023-06-04T07:18:50;1.80;;;0.70;;
12861;SDS011;6499;66.348;14.134;2023-06-04T07:21:16;2.53;;;0.80;;
12861;SDS011;6499;66.348;14.134;2023-06-04T07:23:44;4.00;;;1.20;;
12861;SDS011;6499;66.348;14.134;2023-06-04T07:26:14;1.90;;;0.70;;
12861;SDS011;6499;66.348;14.134;2023-06-04T07:28:41;2.33;;;0.97;;
12861;SDS011;6499;66.348;14.134;2023-06-04T07:31:07;2.73;;;0.90;;
12861;SDS011;6499;66.348;14.134;2023-06-04T07:33:35;2.47;;;0.87;;
12861;SDS011;6499;66.348;14.134;2023-06-04T07:36:08;3.07;;;0.97;;
12861;SDS011;6499;66.348;14.134;2023-06-04T07:38:34;3.00;;;1.00;;
12861;SDS011;6499;66.348;14.134;2023-06-04T07:41:01;3.23;;;0.80;;
12861;SDS011;6499;66.348;14.134;2023-06-04T07:43:27;2.23;;;0.70;;
12861;SDS011;6499;66.348;14.134;2023-06-04T07:45:54;2.57;;;0.77;;
12861;SDS011;6499;66.348;14.134;2023-06-04T07:48:20;2.73;;;0.90;;
12861;SDS011;6499;66.348;14.134;2023-06-04T07:50:49;4.13;;;1.00;;
12861;SDS011;6499;66.348;14.134;2023-06-04T07:53:15;3.33;;;1.07;;
12861;SDS011;6499;66.348;14.134;2023-06-04T07:55:42;2.47;;;0.90;;
12861;SDS011;6499;66.348;14.134;2023-06-04T07:58:08;2.17;;;0.80;;
12861;SDS011;6499;66.348;14.134;2023-06-04T08:00:35;3.80;;;1.23;;
12861;SDS011;6499;66.348;14.134;2023-06-04T08:03:02;1.80;;;1.00;;
12861;SDS011;6499;66.348;14.134;2023-06-04T08:05:29;2.17;;;0.97;;
12861;SDS011;6499;66.348;14.134;2023-06-04T08:07:57;5.73;;;1.10;;
12861;SDS011;6499;66.348;14.134;2023-06-04T08:10:24;2.50;;;0.90;;
12861;SDS011;6499;66.348;14.134;2023-06-04T08:12:50;2.40;;;0.90;;
12861;SDS011;6499;66.348;14.134;2023-06-04T08:15:17;1.33;;;0.70;;
12861;SDS011;6499;66.348;14.134;2023-06-04T08:17:44;2.83;;;0.90;;
12861;SDS011;6499;66.348;14.134;2023-06-04T08:20:10;1.00;;;0.60;;
12861;SDS011;6499;66.348;14.134;2023-06-04T08:22:37;3.67;;;1.07;;
12861;SDS011;6499;66.348;14.134;2023-06-04T08:25:05;1.63;;;0.70;;
12861;SDS011;6499;66.348;14.134;2023-06-04T08:27:32;2.27;;;0.63;;
12861;SDS011;6499;66.348;14.134;2023-06-04T08:29:58;1.57;;;0.80;;
12861;SDS011;6499;66.348;14.134;2023-06-04T08:32:25;1.57;;;0.70;;
12861;SDS011;6499;66.348;14.134;2023-06-04T08:34:51;3.37;;;0.80;;
12861;SDS011;6499;66.348;14.134;2023-06-04T08:37:18;3.03;;;0.93;;
12861;SDS011;6499;66.348;14.134;2023-06-04T08:39:45;2.30;;;0.70;;
12861;SDS011;6499;66.348;14.134;2023-06-04T08:42:14;3.30;;;0.90;;
12861;SDS011;6499;66.348;14.134;2023-06-04T08:44:44;4.70;;;1.43;;
12861;SDS011;6499;66.348;14.134;2023-06-04T08:47:11;4.83;;;1.00;;
12861;SDS011;6499;66.348;14.134;2023-06-04T08:49:40;2.00;;;0.90;;
12861;SDS011;6499;66.348;14.134;2023-06-04T08:52:07;2.97;;;1.10;;
12861;SDS011;6499;66.348;14.134;2023-06-04T08:54:33;2.83;;;1.10;;
12861;SDS011;6499;66.348;14.134;2023-06-04T08:57:01;4.20;;;1.00;;
12861;SDS011;6499;66.348;14.134;2023-06-04T08:59:30;4.33;;;1.20;;
12861;SDS011;6499;66.348;14.134;2023-06-04T09:01:56;3.83;;;1.20;;
12861;SDS011;6499;66.348;14.134;2023-06-04T09:04:23;2.47;;;1.10;;
12861;SDS011;6499;66.348;14.134;2023-06-04T09:06:50;3.37;;;1.40;;
12861;SDS011;6499;66.348;14.134;2023-06-04T09:09:17;4.80;;;1.30;;
12861;SDS011;6499;66.348;14.134;2023-06-04T09:11:46;4.83;;;1.50;;
12861;SDS011;6499;66.348;14.134;2023-06-04T09:14:15;4.43;;;1.23;;
12861;SDS011;6499;66.348;14.134;2023-06-04T09:16:44;3.83;;;1.20;;
12861;SDS011;6499;66.348;14.134;2023-06-04T09:19:11;4.10;;;1.70;;
12861;SDS011;6499;66.348;14.134;2023-06-04T09:21:50;2.67;;;1.40;;
12861;SDS011;6499;66.348;14.134;2023-06-04T09:24:17;3.33;;;1.20;;
12861;SDS011;6499;66.348;14.134;2023-06-04T09:26:44;3.40;;;1.27;;
12861;SDS011;6499;66.348;14.134;2023-06-04T09:29:10;3.33;;;1.30;;
12861;SDS011;6499;66.348;14.134;2023-06-04T09:31:37;4.30;;;1.40;;
12861;SDS011;6499;66.348;14.134;2023-06-04T09:34:06;2.13;;;0.97;;
12861;SDS011;6499;66.348;14.134;2023-06-04T09:36:33;3.47;;;1.20;;
12861;SDS011;6499;66.348;14.134;2023-06-04T09:39:00;4.97;;;1.07;;
12861;SDS011;6499;66.348;14.134;2023-06-04T09:41:27;3.50;;;1.30;;
12861;SDS011;6499;66.348;14.134;2023-06-04T09:43:59;5.10;;;1.10;;
12861;SDS011;6499;66.348;14.134;2023-06-04T09:46:27;4.10;;;1.13;;
12861;SDS011;6499;66.348;14.134;2023-06-04T09:48:59;4.93;;;1.53;;
12861;SDS011;6499;66.348;14.134;2023-06-04T09:51:27;4.53;;;1.27;;
12861;SDS011;6499;66.348;14.134;2023-06-04T09:53:54;4.87;;;1.50;;
12861;SDS011;6499;66.348;14.134;2023-06-04T09:56:21;5.10;;;1.50;;
12861;SDS011;6499;66.348;14.134;2023-06-04T09:58:48;5.33;;;1.27;;
12861;SDS011;6499;66.348;14.134;2023-06-04T10:01:15;3.67;;;1.10;;
12861;SDS011;6499;66.348;14.134;2023-06-04T10:03:42;4.33;;;1.30;;
12861;SDS011;6499;66.348;14.134;2023-06-04T10:06:11;2.83;;;1.20;;
12861;SDS011;6499;66.348;14.134;2023-06-04T10:08:41;2.87;;;1.40;;
12861;SDS011;6499;66.348;14.134;2023-06-04T10:11:08;5.50;;;1.43;;
12861;SDS011;6499;66.348;14.134;2023-06-04T10:13:37;3.23;;;1.20;;
12861;SDS011;6499;66.348;14.134;2023-06-04T10:16:05;4.33;;;1.40;;
12861;SDS011;6499;66.348;14.134;2023-06-04T10:18:33;3.27;;;1.30;;
12861;SDS011;6499;66.348;14.134;2023-06-04T10:21:00;2.30;;;1.10;;
12861;SDS011;6499;66.348;14.134;2023-06-04T10:23:27;3.10;;;1.07;;
12861;SDS011;6499;66.348;14.134;2023-06-04T10:25:55;3.67;;;1.13;;
12861;SDS011;6499;66.348;14.134;2023-06-04T10:28:22;2.27;;;1.23;;
12861;SDS011;6499;66.348;14.134;2023-06-04T10:30:50;3.10;;;1.27;;
12861;SDS011;6499;66.348;14.134;2023-06-04T10:33:17;5.07;;;1.20;;
12861;SDS011;6499;66.348;14.134;2023-06-04T10:35:45;4.33;;;1.10;;
12861;SDS011;6499;66.348;14.134;2023-06-04T10:38:12;5.90;;;1.20;;
12861;SDS011;6499;66.348;14.134;2023-06-04T10:40:41;5.87;;;1.83;;
12861;SDS011;6499;66.348;14.134;2023-06-04T10:43:10;6.70;;;1.30;;
12861;SDS011;6499;66.348;14.134;2023-06-04T10:45:37;2.97;;;1.20;;
12861;SDS011;6499;66.348;14.134;2023-06-04T10:48:04;3.60;;;1.20;;
12861;SDS011;6499;66.348;14.134;2023-06-04T10:50:31;1.80;;;1.20;;
12861;SDS011;6499;66.348;14.134;2023-06-04T10:52:58;3.13;;;0.90;;
12861;SDS011;6499;66.348;14.134;2023-06-04T10:55:27;1.73;;;0.83;;
12861;SDS011;6499;66.348;14.134;2023-06-04T10:57:54;2.13;;;0.70;;
12861;SDS011;6499;66.348;14.134;2023-06-04T11:00:22;3.43;;;0.90;;
12861;SDS011;6499;66.348;14.134;2023-06-04T11:03:00;1.87;;;1.10;;
12861;SDS011;6499;66.348;14.134;2023-06-04T11:05:33;2.23;;;1.00;;
12861;SDS011;6499;66.348;14.134;2023-06-04T11:08:00;2.87;;;1.10;;
12861;SDS011;6499;66.348;14.134;2023-06-04T11:10:30;1.97;;;0.90;;
12861;SDS011;6499;66.348;14.134;2023-06-04T11:12:57;2.57;;;1.20;;
12861;SDS011;6499;66.348;14.134;2023-06-04T11:15:25;1.80;;;1.33;;
12861;SDS011;6499;66.348;14.134;2023-06-04T11:17:52;1.97;;;1.20;;
12861;SDS011;6499;66.348;14.134;2023-06-04T11:20:20;2.90;;;1.10;;
12861;SDS011;6499;66.348;14.134;2023-06-04T11:22:52;2.20;;;0.60;;
12861;SDS011;6499;66.348;14.134;2023-06-04T11:25:18;2.40;;;1.00;;
12861;SDS011;6499;66.348;14.134;2023-06-04T11:27:47;1.87;;;0.80;;
12861;SDS011;6499;66.348;14.134;2023-06-04T11:30:14;1.67;;;0.77;;
12861;SDS011;6499;66.348;14.134;2023-06-04T11:32:42;1.80;;;0.80;;
12861;SDS011;6499;66.348;14.134;2023-06-04T11:35:09;3.20;;;0.90;;
12861;SDS011;6499;66.348;14.134;2023-06-04T11:37:36;2.23;;;1.00;;
12861;SDS011;6499;66.348;14.134;2023-06-04T11:40:03;1.50;;;0.80;;
12861;SDS011;6499;66.348;14.134;2023-06-04T11:42:31;2.27;;;0.80;;
12861;SDS011;6499;66.348;14.134;2023-06-04T11:44:58;0.93;;;0.60;;
12861;SDS011;6499;66.348;14.134;2023-06-04T11:47:25;2.83;;;0.90;;
12861;SDS011;6499;66.348;14.134;2023-06-04T11:49:55;1.93;;;0.70;;
12861;SDS011;6499;66.348;14.134;2023-06-04T11:52:22;2.03;;;0.87;;
12861;SDS011;6499;66.348;14.134;2023-06-04T11:54:49;0.87;;;0.70;;
12861;SDS011;6499;66.348;14.134;2023-06-04T11:57:15;2.13;;;0.80;;
12861;SDS011;6499;66.348;14.134;2023-06-04T11:59:42;1.00;;;0.73;;
12861;SDS011;6499;66.348;14.134;2023-06-04T12:02:09;1.33;;;0.90;;
12861;SDS011;6499;66.348;14.134;2023-06-04T12:04:35;1.33;;;0.60;;
12861;SDS011;6499;66.348;14.134;2023-06-04T12:07:03;0.67;;;0.60;;
12861;SDS011;6499;66.348;14.134;2023-06-04T12:09:31;0.80;;;0.50;;
12861;SDS011;6499;66.348;14.134;2023-06-04T12:12:00;1.13;;;0.53;;
12861;SDS011;6499;66.348;14.134;2023-06-04T12:14:26;1.00;;;0.40;;
12861;SDS011;6499;66.348;14.134;2023-06-04T12:16:56;2.33;;;0.70;;
12861;SDS011;6499;66.348;14.134;2023-06-04T12:19:23;0.67;;;0.43;;
12861;SDS011;6499;66.348;14.134;2023-06-04T12:21:58;1.33;;;0.70;;
12861;SDS011;6499;66.348;14.134;2023-06-04T12:24:27;1.57;;;0.70;;
12861;SDS011;6499;66.348;14.134;2023-06-04T12:27:00;0.93;;;0.57;;
12861;SDS011;6499;66.348;14.134;2023-06-04T12:29:29;0.60;;;0.57;;
12861;SDS011;6499;66.348;14.134;2023-06-04T12:32:02;1.00;;;0.50;;
12861;SDS011;6499;66.348;14.134;2023-06-04T12:34:30;1.33;;;0.53;;
12861;SDS011;6499;66.348;14.134;2023-06-04T12:36:56;0.97;;;0.50;;
12861;SDS011;6499;66.348;14.134;2023-06-04T12:39:23;0.53;;;0.53;;
12861;SDS011;6499;66.348;14.134;2023-06-04T12:41:50;0.87;;;0.40;;
12861;SDS011;6499;66.348;14.134;2023-06-04T12:44:17;1.27;;;0.50;;
12861;SDS011;6499;66.348;14.134;2023-06-04T12:46:44;0.73;;;0.40;;
12861;SDS011;6499;66.348;14.134;2023-06-04T12:49:10;1.33;;;0.53;;
12861;SDS011;6499;66.348;14.134;2023-06-04T12:51:37;0.30;;;0.30;;
12861;SDS011;6499;66.348;14.134;2023-06-04T12:54:04;0.97;;;0.50;;
12861;SDS011;6499;66.348;14.134;2023-06-04T12:56:30;0.80;;;0.50;;
12861;SDS011;6499;66.348;14.134;2023-06-04T12:59:01;1.20;;;0.40;;
12861;SDS011;6499;66.348;14.134;2023-06-04T13:01:28;0.57;;;0.50;;
12861;SDS011;6499;66.348;14.134;2023-06-04T13:03:54;1.27;;;0.50;;
12861;SDS011;6499;66.348;14.134;2023-06-04T13:06:21;1.03;;;0.40;;
12861;SDS011;6499;66.348;14.134;2023-06-04T13:08:48;0.50;;;0.40;;
12861;SDS011;6499;66.348;14.134;2023-06-04T13:11:14;0.47;;;0.40;;
12861;SDS011;6499;66.348;14.134;2023-06-04T13:13:41;0.37;;;0.37;;
12861;SDS011;6499;66.348;14.134;2023-06-04T13:16:09;0.50;;;0.50;;
12861;SDS011;6499;66.348;14.134;2023-06-04T13:18:36;0.53;;;0.40;;
12861;SDS011;6499;66.348;14.134;2023-06-04T13:21:02;0.40;;;0.40;;
12861;SDS011;6499;66.348;14.134;2023-06-04T13:23:29;0.40;;;0.40;;
12861;SDS011;6499;66.348;14.134;2023-06-04T13:25:55;0.30;;;0.30;;
12861;SDS011;6499;66.348;14.134;2023-06-04T13:28:22;0.30;;;0.30;;
12861;SDS011;6499;66.348;14.134;2023-06-04T13:30:48;0.70;;;0.40;;
12861;SDS011;6499;66.348;14.134;2023-06-04T13:33:16;0.50;;;0.40;;
12861;SDS011;6499;66.348;14.134;2023-06-04T13:35:44;0.87;;;0.53;;
12861;SDS011;6499;66.348;14.134;2023-06-04T13:38:10;1.60;;;0.53;;
12861;SDS011;6499;66.348;14.134;2023-06-04T13:40:37;0.60;;;0.43;;
12861;SDS011;6499;66.348;14.134;2023-06-04T13:43:04;0.40;;;0.40;;
12861;SDS011;6499;66.348;14.134;2023-06-04T13:45:31;0.57;;;0.40;;
12861;SDS011;6499;66.348;14.134;2023-06-04T13:47:57;0.63;;;0.30;;
12861;SDS011;6499;66.348;14.134;2023-06-04T13:50:29;0.43;;;0.30;;
12861;SDS011;6499;66.348;14.134;2023-06-04T13:52:55;0.20;;;0.20;;
12861;SDS011;6499;66.348;14.134;2023-06-04T13:55:22;0.80;;;0.40;;
12861;SDS011;6499;66.348;14.134;2023-06-04T13:57:48;0.90;;;0.50;;
12861;SDS011;6499;66.348;14.134;2023-06-04T14:00:15;0.30;;;0.30;;
12861;SDS011;6499;66.348;14.134;2023-06-04T14:02:42;0.33;;;0.33;;
12861;SDS011;6499;66.348;14.134;2023-06-04T14:05:11;0.47;;;0.47;;
12861;SDS011;6499;66.348;14.134;2023-06-04T14:07:40;0.40;;;0.30;;
12861;SDS011;6499;66.348;14.134;2023-06-04T14:10:07;0.30;;;0.30;;
12861;SDS011;6499;66.348;14.134;2023-06-04T14:12:34;0.20;;;0.20;;
12861;SDS011;6499;66.348;14.134;2023-06-04T14:15:00;0.20;;;0.20;;
12861;SDS011;6499;66.348;14.134;2023-06-04T14:17:27;0.20;;;0.20;;
12861;SDS011;6499;66.348;14.134;2023-06-04T14:19:53;0.30;;;0.30;;
12861;SDS011;6499;66.348;14.134;2023-06-04T14:22:20;0.20;;;0.20;;
12861;SDS011;6499;66.348;14.134;2023-06-04T14:24:48;0.50;;;0.50;;
12861;SDS011;6499;66.348;14.134;2023-06-04T14:27:14;0.30;;;0.20;;
12861;SDS011;6499;66.348;14.134;2023-06-04T14:29:41;0.73;;;0.40;;
12861;SDS011;6499;66.348;14.134;2023-06-04T14:32:07;0.40;;;0.40;;
12861;SDS011;6499;66.348;14.134;2023-06-04T14:34:34;0.63;;;0.60;;
12861;SDS011;6499;66.348;14.134;2023-06-04T14:37:01;0.63;;;0.40;;
12861;SDS011;6499;66.348;14.134;2023-06-04T14:39:27;0.43;;;0.40;;
12861;SDS011;6499;66.348;14.134;2023-06-04T14:41:55;0.30;;;0.30;;
12861;SDS011;6499;66.348;14.134;2023-06-04T14:44:22;1.00;;;0.40;;
12861;SDS011;6499;66.348;14.134;2023-06-04T14:46:49;0.70;;;0.60;;
12861;SDS011;6499;66.348;14.134;2023-06-04T14:49:16;0.90;;;0.50;;